sensor_id;sensor_type;location;lat;lon;timestamp;pressure;altitude;pressure_sealevel;temperature;humidity
9822;BME280;4950;46.042;14.472;2022-12-18T00:01:57;99306.31;;;2.76;92.92
9822;BME280;4950;46.042;14.472;2022-12-18T00:04:25;99310.44;;;2.79;92.54
9822;BME280;4950;46.042;14.472;2022-12-18T00:06:52;99311.53;;;2.74;92.74
9822;BME280;4950;46.042;14.472;2022-12-18T00:09:19;99311.44;;;2.76;93.27
9822;BME280;4950;46.042;14.472;2022-12-18T00:11:46;99320.97;;;2.74;92.77
9822;BME280;4950;46.042;14.472;2022-12-18T00:14:14;99325.09;;;2.76;92.54
9822;BME280;4950;46.042;14.472;2022-12-18T00:16:43;99327.84;;;2.73;92.95
9822;BME280;4950;46.042;14.472;2022-12-18T00:19:10;99327.84;;;2.73;93.28
9822;BME280;4950;46.042;14.472;2022-12-18T00:21:37;99334.69;;;2.73;93.05
9822;BME280;4950;46.042;14.472;2022-12-18T00:24:04;99331.31;;;2.72;93.09
9822;BME280;4950;46.042;14.472;2022-12-18T00:26:33;99332.97;;;2.73;93.31
9822;BME280;4950;46.042;14.472;2022-12-18T00:29:00;99335.44;;;2.75;93.46
9822;BME280;4950;46.042;14.472;2022-12-18T00:31:28;99332.63;;;2.80;93.46
9822;BME280;4950;46.042;14.472;2022-12-18T00:33:55;99342.03;;;2.79;93.34
9822;BME280;4950;46.042;14.472;2022-12-18T00:36:24;99351.47;;;2.79;93.48
9822;BME280;4950;46.042;14.472;2022-12-18T00:38:52;99347.34;;;2.76;93.69
9822;BME280;4950;46.042;14.472;2022-12-18T00:41:19;99356.94;;;2.72;93.45
9822;BME280;4950;46.042;14.472;2022-12-18T00:44:00;99368.75;;;2.75;93.08
9822;BME280;4950;46.042;14.472;2022-12-18T00:46:26;99361.91;;;2.75;93.72
9822;BME280;4950;46.042;14.472;2022-12-18T00:48:54;99353.28;;;2.76;93.85
9822;BME280;4950;46.042;14.472;2022-12-18T00:51:22;99355.78;;;2.78;93.32
9822;BME280;4950;46.042;14.472;2022-12-18T00:53:49;99355.78;;;2.78;93.37
9822;BME280;4950;46.042;14.472;2022-12-18T00:56:16;99359.22;;;2.77;93.31
9822;BME280;4950;46.042;14.472;2022-12-18T00:58:42;99351.97;;;2.69;93.77
9822;BME280;4950;46.042;14.472;2022-12-18T01:01:09;99355.47;;;2.68;93.22
9822;BME280;4950;46.042;14.472;2022-12-18T01:03:36;99353.81;;;2.67;93.61
9822;BME280;4950;46.042;14.472;2022-12-18T01:06:07;99355.63;;;2.65;93.31
9822;BME280;4950;46.042;14.472;2022-12-18T01:08:34;99362.28;;;2.53;92.76
9822;BME280;4950;46.042;14.472;2022-12-18T01:11:06;99360.38;;;2.57;92.72
9822;BME280;4950;46.042;14.472;2022-12-18T01:13:33;99365.78;;;2.52;92.73
9822;BME280;4950;46.042;14.472;2022-12-18T01:15:59;99365.94;;;2.49;93.11
9822;BME280;4950;46.042;14.472;2022-12-18T01:18:26;99365.94;;;2.49;93.71
9822;BME280;4950;46.042;14.472;2022-12-18T01:20:53;99366.84;;;2.48;92.70
9822;BME280;4950;46.042;14.472;2022-12-18T01:23:21;99369.41;;;2.48;93.25
9822;BME280;4950;46.042;14.472;2022-12-18T01:25:47;99377.09;;;2.48;92.90
9822;BME280;4950;46.042;14.472;2022-12-18T01:28:14;99382.22;;;2.48;93.28
9822;BME280;4950;46.042;14.472;2022-12-18T01:30:40;99390.06;;;2.45;93.21
9822;BME280;4950;46.042;14.472;2022-12-18T01:33:07;99386.63;;;2.46;93.48
9822;BME280;4950;46.042;14.472;2022-12-18T01:35:40;99386.84;;;2.42;93.63
9822;BME280;4950;46.042;14.472;2022-12-18T01:38:06;99383.56;;;2.40;93.36
9822;BME280;4950;46.042;14.472;2022-12-18T01:40:34;99379.59;;;2.34;93.02
9822;BME280;4950;46.042;14.472;2022-12-18T01:43:01;99381.50;;;2.30;93.14
9822;BME280;4950;46.042;14.472;2022-12-18T01:45:28;99381.59;;;2.29;93.25
9822;BME280;4950;46.042;14.472;2022-12-18T01:47:57;99375.63;;;2.28;93.79
9822;BME280;4950;46.042;14.472;2022-12-18T01:50:29;99385.06;;;2.28;93.77
9822;BME280;4950;46.042;14.472;2022-12-18T01:52:59;99397.72;;;2.31;94.17
9822;BME280;4950;46.042;14.472;2022-12-18T01:55:28;99396.88;;;2.30;94.03
9822;BME280;4950;46.042;14.472;2022-12-18T01:57:59;99404.00;;;2.25;94.10
9822;BME280;4950;46.042;14.472;2022-12-18T02:00:27;99399.69;;;2.26;93.48
9822;BME280;4950;46.042;14.472;2022-12-18T02:02:54;99401.50;;;2.24;93.31
9822;BME280;4950;46.042;14.472;2022-12-18T02:05:27;99416.72;;;2.27;93.42
9822;BME280;4950;46.042;14.472;2022-12-18T02:08:06;99420.03;;;2.29;93.13
9822;BME280;4950;46.042;14.472;2022-12-18T02:10:41;99418.03;;;2.34;93.59
9822;BME280;4950;46.042;14.472;2022-12-18T02:13:14;99415.72;;;2.29;93.15
9822;BME280;4950;46.042;14.472;2022-12-18T02:15:51;99421.66;;;2.30;93.29
9822;BME280;4950;46.042;14.472;2022-12-18T02:18:23;99429.59;;;2.25;93.44
9822;BME280;4950;46.042;14.472;2022-12-18T02:20:57;99428.88;;;2.23;93.06
9822;BME280;4950;46.042;14.472;2022-12-18T02:23:41;99430.69;;;2.21;93.73
9822;BME280;4950;46.042;14.472;2022-12-18T02:26:16;99430.91;;;2.16;92.80
9822;BME280;4950;46.042;14.472;2022-12-18T02:28:48;99437.19;;;2.11;93.80
9822;BME280;4950;46.042;14.472;2022-12-18T02:31:23;99434.53;;;2.12;93.08
9822;BME280;4950;46.042;14.472;2022-12-18T02:33:53;99432.06;;;2.11;93.76
9822;BME280;4950;46.042;14.472;2022-12-18T02:36:21;99439.19;;;2.06;93.46
9822;BME280;4950;46.042;14.472;2022-12-18T02:38:50;99426.59;;;2.01;93.63
9822;BME280;4950;46.042;14.472;2022-12-18T02:41:20;99425.84;;;1.99;93.17
9822;BME280;4950;46.042;14.472;2022-12-18T02:43:53;99431.09;;;1.97;93.73
9822;BME280;4950;46.042;14.472;2022-12-18T02:46:31;99431.91;;;1.98;93.73
9822;BME280;4950;46.042;14.472;2022-12-18T02:49:08;99434.53;;;1.96;93.43
9822;BME280;4950;46.042;14.472;2022-12-18T02:51:47;99427.84;;;1.94;94.25
9822;BME280;4950;46.042;14.472;2022-12-18T02:54:23;99428.69;;;1.94;94.00
9822;BME280;4950;46.042;14.472;2022-12-18T02:56:56;99438.09;;;1.94;93.96
9822;BME280;4950;46.042;14.472;2022-12-18T02:59:29;99451.88;;;1.91;93.16
9822;BME280;4950;46.042;14.472;2022-12-18T03:02:00;99450.22;;;1.90;93.40
9822;BME280;4950;46.042;14.472;2022-12-18T03:04:30;99463.78;;;1.92;93.03
9822;BME280;4950;46.042;14.472;2022-12-18T03:07:02;99463.19;;;1.87;92.46
9822;BME280;4950;46.042;14.472;2022-12-18T03:09:32;99459.97;;;1.84;93.30
9822;BME280;4950;46.042;14.472;2022-12-18T03:12:05;99466.97;;;1.80;94.76
9822;BME280;4950;46.042;14.472;2022-12-18T03:14:50;99462.59;;;1.82;94.43
9822;BME280;4950;46.042;14.472;2022-12-18T03:17:20;99457.31;;;1.85;94.00
9822;BME280;4950;46.042;14.472;2022-12-18T03:19:49;99463.28;;;1.86;93.76
9822;BME280;4950;46.042;14.472;2022-12-18T03:22:18;99461.75;;;1.82;94.30
9822;BME280;4950;46.042;14.472;2022-12-18T03:24:47;99460.78;;;1.84;94.67
9822;BME280;4950;46.042;14.472;2022-12-18T03:27:19;99464.25;;;1.83;94.18
9822;BME280;4950;46.042;14.472;2022-12-18T03:29:50;99458.31;;;1.83;94.46
9822;BME280;4950;46.042;14.472;2022-12-18T03:32:25;99458.44;;;1.80;94.17
9822;BME280;4950;46.042;14.472;2022-12-18T03:34:55;99456.81;;;1.78;95.14
9822;BME280;4950;46.042;14.472;2022-12-18T03:37:23;99465.25;;;1.81;94.94
9822;BME280;4950;46.042;14.472;2022-12-18T03:39:50;99457.81;;;1.76;94.97
9822;BME280;4950;46.042;14.472;2022-12-18T03:42:25;99457.88;;;1.74;94.30
9822;BME280;4950;46.042;14.472;2022-12-18T03:44:58;99454.41;;;1.75;93.97
9822;BME280;4950;46.042;14.472;2022-12-18T03:47:30;99465.56;;;1.74;94.98
9822;BME280;4950;46.042;14.472;2022-12-18T03:50:03;99455.31;;;1.74;94.29
9822;BME280;4950;46.042;14.472;2022-12-18T03:52:38;99468.19;;;1.73;94.62
9822;BME280;4950;46.042;14.472;2022-12-18T03:55:08;99470.81;;;1.71;94.36
9822;BME280;4950;46.042;14.472;2022-12-18T03:57:37;99479.63;;;1.66;94.41
9822;BME280;4950;46.042;14.472;2022-12-18T04:00:09;99487.41;;;1.64;94.79
9822;BME280;4950;46.042;14.472;2022-12-18T04:02:38;99490.94;;;1.62;94.46
9822;BME280;4950;46.042;14.472;2022-12-18T04:05:08;99502.03;;;1.62;94.37
9822;BME280;4950;46.042;14.472;2022-12-18T04:07:36;99504.66;;;1.61;94.29
9822;BME280;4950;46.042;14.472;2022-12-18T04:10:06;99506.53;;;1.57;94.28
9822;BME280;4950;46.042;14.472;2022-12-18T04:12:33;99505.72;;;1.56;95.18
9822;BME280;4950;46.042;14.472;2022-12-18T04:15:01;99508.47;;;1.52;93.80
9822;BME280;4950;46.042;14.472;2022-12-18T04:17:27;99506.00;;;1.50;94.66
9822;BME280;4950;46.042;14.472;2022-12-18T04:19:54;99502.47;;;1.53;95.18
9822;BME280;4950;46.042;14.472;2022-12-18T04:22:21;99505.72;;;1.56;94.83
9822;BME280;4950;46.042;14.472;2022-12-18T04:24:47;99512.66;;;1.54;94.57
9822;BME280;4950;46.042;14.472;2022-12-18T04:27:14;99514.66;;;1.48;94.90
9822;BME280;4950;46.042;14.472;2022-12-18T04:29:41;99519.84;;;1.46;94.92
9822;BME280;4950;46.042;14.472;2022-12-18T04:32:09;99513.03;;;1.47;94.29
9822;BME280;4950;46.042;14.472;2022-12-18T04:34:35;99519.78;;;1.48;95.05
9822;BME280;4950;46.042;14.472;2022-12-18T04:37:02;99519.84;;;1.46;95.07
9822;BME280;4950;46.042;14.472;2022-12-18T04:39:29;99524.38;;;1.41;94.78
9822;BME280;4950;46.042;14.472;2022-12-18T04:41:56;99515.03;;;1.40;95.31
9822;BME280;4950;46.042;14.472;2022-12-18T04:44:22;99526.94;;;1.41;94.29
9822;BME280;4950;46.042;14.472;2022-12-18T04:46:49;99530.31;;;1.42;93.85
9822;BME280;4950;46.042;14.472;2022-12-18T04:49:17;99543.34;;;1.37;94.38
9822;BME280;4950;46.042;14.472;2022-12-18T04:51:43;99552.81;;;1.35;93.44
9822;BME280;4950;46.042;14.472;2022-12-18T04:54:10;99547.78;;;1.33;93.44
9822;BME280;4950;46.042;14.472;2022-12-18T04:56:37;99548.72;;;1.31;93.44
9822;BME280;4950;46.042;14.472;2022-12-18T04:59:03;99558.06;;;1.32;93.92
9822;BME280;4950;46.042;14.472;2022-12-18T05:01:30;99563.31;;;1.29;94.64
9822;BME280;4950;46.042;14.472;2022-12-18T05:03:56;99562.44;;;1.30;93.91
9822;BME280;4950;46.042;14.472;2022-12-18T05:06:24;99571.00;;;1.29;94.01
9822;BME280;4950;46.042;14.472;2022-12-18T05:08:51;99570.03;;;1.31;94.17
9822;BME280;4950;46.042;14.472;2022-12-18T05:11:18;99583.59;;;1.33;94.96
9822;BME280;4950;46.042;14.472;2022-12-18T05:13:45;99586.91;;;1.35;94.16
9822;BME280;4950;46.042;14.472;2022-12-18T05:16:12;99579.22;;;1.35;94.20
9822;BME280;4950;46.042;14.472;2022-12-18T05:18:39;99581.91;;;1.32;95.12
9822;BME280;4950;46.042;14.472;2022-12-18T05:21:06;99580.22;;;1.33;94.79
9822;BME280;4950;46.042;14.472;2022-12-18T05:23:34;99579.28;;;1.34;94.79
9822;BME280;4950;46.042;14.472;2022-12-18T05:26:03;99585.47;;;1.30;94.87
9822;BME280;4950;46.042;14.472;2022-12-18T05:28:33;99580.47;;;1.27;94.98
9822;BME280;4950;46.042;14.472;2022-12-18T05:31:01;99580.63;;;1.24;95.54
9822;BME280;4950;46.042;14.472;2022-12-18T05:33:30;99583.19;;;1.24;94.96
9822;BME280;4950;46.042;14.472;2022-12-18T05:35:58;99587.63;;;1.20;94.88
9822;BME280;4950;46.042;14.472;2022-12-18T05:38:26;99589.06;;;1.26;95.45
9822;BME280;4950;46.042;14.472;2022-12-18T05:40:55;99593.44;;;1.24;94.50
9822;BME280;4950;46.042;14.472;2022-12-18T05:43:22;99584.09;;;1.23;94.80
9822;BME280;4950;46.042;14.472;2022-12-18T05:45:50;99587.25;;;1.28;94.48
9822;BME280;4950;46.042;14.472;2022-12-18T05:48:17;99586.22;;;1.32;94.10
9822;BME280;4950;46.042;14.472;2022-12-18T05:50:45;99582.78;;;1.33;94.64
9822;BME280;4950;46.042;14.472;2022-12-18T05:53:12;99589.53;;;1.34;94.50
9822;BME280;4950;46.042;14.472;2022-12-18T05:55:40;99588.84;;;1.30;95.31
9822;BME280;4950;46.042;14.472;2022-12-18T05:58:10;99599.00;;;1.32;95.05
9822;BME280;4950;46.042;14.472;2022-12-18T06:00:39;99604.06;;;1.33;95.17
9822;BME280;4950;46.042;14.472;2022-12-18T06:03:07;99606.75;;;1.30;95.01
9822;BME280;4950;46.042;14.472;2022-12-18T06:05:35;99613.31;;;1.36;93.93
9822;BME280;4950;46.042;14.472;2022-12-18T06:08:02;99615.09;;;1.34;94.76
9822;BME280;4950;46.042;14.472;2022-12-18T06:10:28;99628.19;;;1.28;94.15
9822;BME280;4950;46.042;14.472;2022-12-18T06:12:55;99627.50;;;1.24;94.58
9822;BME280;4950;46.042;14.472;2022-12-18T06:15:23;99620.94;;;1.18;94.66
9822;BME280;4950;46.042;14.472;2022-12-18T06:17:50;99630.19;;;1.21;95.50
9822;BME280;4950;46.042;14.472;2022-12-18T06:20:16;99621.63;;;1.22;94.36
9822;BME280;4950;46.042;14.472;2022-12-18T06:22:43;99624.81;;;1.27;94.37
9822;BME280;4950;46.042;14.472;2022-12-18T06:25:10;99618.03;;;1.26;94.83
9822;BME280;4950;46.042;14.472;2022-12-18T06:27:37;99617.78;;;1.31;94.42
9822;BME280;4950;46.042;14.472;2022-12-18T06:30:06;99616.44;;;1.24;95.12
9822;BME280;4950;46.042;14.472;2022-12-18T06:32:34;99617.97;;;1.28;94.74
9822;BME280;4950;46.042;14.472;2022-12-18T06:35:01;99618.59;;;1.33;94.16
9822;BME280;4950;46.042;14.472;2022-12-18T06:37:28;99614.88;;;1.38;94.33
9822;BME280;4950;46.042;14.472;2022-12-18T06:39:54;99623.59;;;1.34;94.08
9822;BME280;4950;46.042;14.472;2022-12-18T06:42:21;99627.00;;;1.35;94.48
9822;BME280;4950;46.042;14.472;2022-12-18T06:44:48;99627.16;;;1.32;93.73
9822;BME280;4950;46.042;14.472;2022-12-18T06:47:15;99633.00;;;1.34;94.35
9822;BME280;4950;46.042;14.472;2022-12-18T06:49:43;99647.47;;;1.35;93.66
9822;BME280;4950;46.042;14.472;2022-12-18T06:52:09;99645.56;;;1.38;93.21
9822;BME280;4950;46.042;14.472;2022-12-18T06:54:36;99644.00;;;1.36;93.15
9822;BME280;4950;46.042;14.472;2022-12-18T06:57:03;99651.22;;;1.28;93.56
9822;BME280;4950;46.042;14.472;2022-12-18T06:59:29;99664.06;;;1.26;94.02
9822;BME280;4950;46.042;14.472;2022-12-18T07:01:56;99667.25;;;1.31;93.89
9822;BME280;4950;46.042;14.472;2022-12-18T07:04:27;99674.75;;;1.34;93.53
9822;BME280;4950;46.042;14.472;2022-12-18T07:06:55;99665.28;;;1.36;93.03
9822;BME280;4950;46.042;14.472;2022-12-18T07:09:22;99668.59;;;1.38;93.85
9822;BME280;4950;46.042;14.472;2022-12-18T07:11:49;99673.47;;;1.45;93.09
9822;BME280;4950;46.042;14.472;2022-12-18T07:14:15;99667.50;;;1.44;93.82
9822;BME280;4950;46.042;14.472;2022-12-18T07:16:42;99669.09;;;1.47;94.01
9822;BME280;4950;46.042;14.472;2022-12-18T07:19:11;99670.00;;;1.46;93.21
9822;BME280;4950;46.042;14.472;2022-12-18T07:21:38;99668.47;;;1.42;93.44
9822;BME280;4950;46.042;14.472;2022-12-18T07:24:07;99683.06;;;1.40;93.76
9822;BME280;4950;46.042;14.472;2022-12-18T07:26:33;99678.94;;;1.37;93.36
9822;BME280;4950;46.042;14.472;2022-12-18T07:29:00;99691.84;;;1.34;93.15
9822;BME280;4950;46.042;14.472;2022-12-18T07:31:27;99700.97;;;1.40;93.03
9822;BME280;4950;46.042;14.472;2022-12-18T07:33:54;99702.44;;;1.45;93.43
9822;BME280;4950;46.042;14.472;2022-12-18T07:36:20;99704.06;;;1.46;93.06
9822;BME280;4950;46.042;14.472;2022-12-18T07:38:47;99712.38;;;1.51;93.06
9822;BME280;4950;46.042;14.472;2022-12-18T07:41:15;99714.47;;;1.43;92.57
9822;BME280;4950;46.042;14.472;2022-12-18T07:43:44;99720.28;;;1.47;93.68
9822;BME280;4950;46.042;14.472;2022-12-18T07:46:12;99719.22;;;1.51;93.87
9822;BME280;4950;46.042;14.472;2022-12-18T07:48:39;99712.31;;;1.53;92.99
9822;BME280;4950;46.042;14.472;2022-12-18T07:51:07;99714.66;;;1.57;93.63
9822;BME280;4950;46.042;14.472;2022-12-18T07:53:34;99729.25;;;1.55;93.35
9822;BME280;4950;46.042;14.472;2022-12-18T07:56:03;99735.94;;;1.58;93.13
9822;BME280;4950;46.042;14.472;2022-12-18T07:58:32;99743.50;;;1.61;93.10
9822;BME280;4950;46.042;14.472;2022-12-18T08:01:03;99749.38;;;1.63;93.24
9822;BME280;4950;46.042;14.472;2022-12-18T08:03:30;99745.81;;;1.66;92.93
9822;BME280;4950;46.042;14.472;2022-12-18T08:05:59;99746.13;;;1.60;93.28
9822;BME280;4950;46.042;14.472;2022-12-18T08:08:26;99750.63;;;1.54;93.29
9822;BME280;4950;46.042;14.472;2022-12-18T08:10:52;99757.25;;;1.58;93.05
9822;BME280;4950;46.042;14.472;2022-12-18T08:13:19;99756.22;;;1.63;93.89
9822;BME280;4950;46.042;14.472;2022-12-18T08:15:55;99764.31;;;1.72;94.36
9822;BME280;4950;46.042;14.472;2022-12-18T08:18:22;99770.81;;;1.61;93.67
9822;BME280;4950;46.042;14.472;2022-12-18T08:20:48;99763.09;;;1.62;93.05
9822;BME280;4950;46.042;14.472;2022-12-18T08:23:15;99761.19;;;1.66;93.33
9822;BME280;4950;46.042;14.472;2022-12-18T08:25:42;99763.50;;;1.72;92.72
9822;BME280;4950;46.042;14.472;2022-12-18T08:28:09;99763.31;;;1.75;93.32
9822;BME280;4950;46.042;14.472;2022-12-18T08:30:36;99758.75;;;1.82;92.90
9822;BME280;4950;46.042;14.472;2022-12-18T08:33:04;99762.44;;;1.76;92.67
9822;BME280;4950;46.042;14.472;2022-12-18T08:35:34;99761.06;;;1.69;92.28
9822;BME280;4950;46.042;14.472;2022-12-18T08:38:01;99764.66;;;1.65;92.24
9822;BME280;4950;46.042;14.472;2022-12-18T08:40:28;99766.19;;;1.69;92.57
9822;BME280;4950;46.042;14.472;2022-12-18T08:42:54;99756.91;;;1.66;92.46
9822;BME280;4950;46.042;14.472;2022-12-18T08:45:39;99760.13;;;1.70;92.42
9822;BME280;4950;46.042;14.472;2022-12-18T08:48:07;99765.19;;;1.71;92.27
9822;BME280;4950;46.042;14.472;2022-12-18T08:50:33;99769.28;;;1.75;91.89
9822;BME280;4950;46.042;14.472;2022-12-18T08:53:00;99765.94;;;1.73;90.61
9822;BME280;4950;46.042;14.472;2022-12-18T08:55:27;99776.88;;;1.77;92.09
9822;BME280;4950;46.042;14.472;2022-12-18T08:57:53;99785.31;;;1.79;91.78
9822;BME280;4950;46.042;14.472;2022-12-18T09:00:20;99798.81;;;1.83;90.80
9822;BME280;4950;46.042;14.472;2022-12-18T09:02:47;99797.06;;;1.83;91.04
9822;BME280;4950;46.042;14.472;2022-12-18T09:05:15;99792.53;;;1.90;90.33
9822;BME280;4950;46.042;14.472;2022-12-18T09:07:42;99794.09;;;1.92;90.16
9822;BME280;4950;46.042;14.472;2022-12-18T09:10:09;99797.53;;;1.91;90.31
9822;BME280;4950;46.042;14.472;2022-12-18T09:12:35;99796.66;;;1.92;90.58
9822;BME280;4950;46.042;14.472;2022-12-18T09:15:03;99800.81;;;1.95;91.28
9822;BME280;4950;46.042;14.472;2022-12-18T09:17:29;99793.81;;;1.98;90.55
9822;BME280;4950;46.042;14.472;2022-12-18T09:19:56;99802.94;;;2.04;90.17
9822;BME280;4950;46.042;14.472;2022-12-18T09:22:24;99805.28;;;2.09;90.23
9822;BME280;4950;46.042;14.472;2022-12-18T09:24:50;99796.69;;;2.10;90.22
9822;BME280;4950;46.042;14.472;2022-12-18T09:27:17;99798.28;;;2.12;90.12
9822;BME280;4950;46.042;14.472;2022-12-18T09:29:44;99802.72;;;2.09;89.56
9822;BME280;4950;46.042;14.472;2022-12-18T09:32:10;99806.03;;;2.11;88.99
9822;BME280;4950;46.042;14.472;2022-12-18T09:34:37;99806.81;;;2.13;87.81
9822;BME280;4950;46.042;14.472;2022-12-18T09:37:03;99804.78;;;2.20;87.70
9822;BME280;4950;46.042;14.472;2022-12-18T09:39:31;99799.34;;;2.26;87.81
9822;BME280;4950;46.042;14.472;2022-12-18T09:41:58;99799.53;;;2.23;87.20
9822;BME280;4950;46.042;14.472;2022-12-18T09:44:27;99791.66;;;2.26;87.34
9822;BME280;4950;46.042;14.472;2022-12-18T09:47:03;99801.63;;;2.32;87.36
9822;BME280;4950;46.042;14.472;2022-12-18T09:49:34;99807.19;;;2.40;86.46
9822;BME280;4950;46.042;14.472;2022-12-18T09:52:05;99801.81;;;2.46;86.21
9822;BME280;4950;46.042;14.472;2022-12-18T09:54:39;99802.81;;;2.42;85.66
9822;BME280;4950;46.042;14.472;2022-12-18T09:57:13;99808.75;;;2.44;84.93
9822;BME280;4950;46.042;14.472;2022-12-18T09:59:42;99801.88;;;2.45;84.14
9822;BME280;4950;46.042;14.472;2022-12-18T10:02:15;99802.69;;;2.45;83.55
9822;BME280;4950;46.042;14.472;2022-12-18T10:04:42;99804.56;;;2.42;82.53
9822;BME280;4950;46.042;14.472;2022-12-18T10:07:15;99800.13;;;2.45;82.23
9822;BME280;4950;46.042;14.472;2022-12-18T10:09:50;99793.13;;;2.49;81.95
9822;BME280;4950;46.042;14.472;2022-12-18T10:12:26;99792.38;;;2.47;82.26
9822;BME280;4950;46.042;14.472;2022-12-18T10:14:58;99786.25;;;2.49;82.42
9822;BME280;4950;46.042;14.472;2022-12-18T10:17:33;99798.94;;;2.52;80.89
9822;BME280;4950;46.042;14.472;2022-12-18T10:20:10;99800.66;;;2.52;77.86
9822;BME280;4950;46.042;14.472;2022-12-18T10:22:46;99789.06;;;2.45;69.67
9822;BME280;4950;46.042;14.472;2022-12-18T10:25:21;99784.44;;;2.51;69.42
9822;BME280;4950;46.042;14.472;2022-12-18T10:27:52;99785.75;;;2.43;69.92
9822;BME280;4950;46.042;14.472;2022-12-18T10:30:22;99782.31;;;2.42;69.38
9822;BME280;4950;46.042;14.472;2022-12-18T10:32:49;99778.44;;;2.35;69.08
9822;BME280;4950;46.042;14.472;2022-12-18T10:35:19;99780.16;;;2.34;70.63
9822;BME280;4950;46.042;14.472;2022-12-18T10:38:05;99769.16;;;2.32;71.14
9822;BME280;4950;46.042;14.472;2022-12-18T10:40:48;99768.31;;;2.32;70.94
9822;BME280;4950;46.042;14.472;2022-12-18T10:43:20;99766.75;;;2.29;71.60
9822;BME280;4950;46.042;14.472;2022-12-18T10:46:00;99772.75;;;2.28;72.01
9822;BME280;4950;46.042;14.472;2022-12-18T10:48:28;99770.06;;;2.31;72.72
9822;BME280;4950;46.042;14.472;2022-12-18T10:50:56;99772.53;;;2.33;72.57
9822;BME280;4950;46.042;14.472;2022-12-18T10:53:26;99779.31;;;2.34;72.47
9822;BME280;4950;46.042;14.472;2022-12-18T10:55:57;99773.31;;;2.35;72.63
9822;BME280;4950;46.042;14.472;2022-12-18T10:58:25;99777.44;;;2.37;72.47
9822;BME280;4950;46.042;14.472;2022-12-18T11:01:05;99769.50;;;2.42;71.81
9822;BME280;4950;46.042;14.472;2022-12-18T11:03:33;99769.31;;;2.47;70.57
9822;BME280;4950;46.042;14.472;2022-12-18T11:06:03;99763.13;;;2.51;70.28
9822;BME280;4950;46.042;14.472;2022-12-18T11:08:30;99763.56;;;2.59;71.20
9822;BME280;4950;46.042;14.472;2022-12-18T11:10:58;99763.19;;;2.67;71.29
9822;BME280;4950;46.042;14.472;2022-12-18T11:13:27;99767.31;;;2.69;72.16
9822;BME280;4950;46.042;14.472;2022-12-18T11:15:54;99769.06;;;2.69;72.13
9822;BME280;4950;46.042;14.472;2022-12-18T11:18:26;99761.91;;;2.75;72.27
9822;BME280;4950;46.042;14.472;2022-12-18T11:20:55;99752.09;;;2.84;70.94
9822;BME280;4950;46.042;14.472;2022-12-18T11:23:25;99748.88;;;2.96;69.64
9822;BME280;4950;46.042;14.472;2022-12-18T11:25:55;99748.41;;;3.05;70.50
9822;BME280;4950;46.042;14.472;2022-12-18T11:28:36;99747.63;;;3.21;70.75
9822;BME280;4950;46.042;14.472;2022-12-18T11:31:22;99743.63;;;3.31;70.06
9822;BME280;4950;46.042;14.472;2022-12-18T11:33:54;99746.63;;;3.39;67.66
9822;BME280;4950;46.042;14.472;2022-12-18T11:36:25;99746.63;;;3.39;67.26
9822;BME280;4950;46.042;14.472;2022-12-18T11:38:55;99741.16;;;3.45;67.82
9822;BME280;4950;46.042;14.472;2022-12-18T11:41:29;99742.56;;;3.51;66.94
9822;BME280;4950;46.042;14.472;2022-12-18T11:44:16;99737.44;;;3.51;65.93
9822;BME280;4950;46.042;14.472;2022-12-18T11:46:49;99738.78;;;3.42;66.14
9822;BME280;4950;46.042;14.472;2022-12-18T11:49:22;99727.41;;;3.30;66.68
9822;BME280;4950;46.042;14.472;2022-12-18T11:51:54;99732.88;;;3.24;65.96
9822;BME280;4950;46.042;14.472;2022-12-18T11:54:22;99727.09;;;3.21;66.28
9822;BME280;4950;46.042;14.472;2022-12-18T11:56:52;99726.34;;;3.19;64.69
9822;BME280;4950;46.042;14.472;2022-12-18T11:59:27;99729.97;;;3.14;65.04
9822;BME280;4950;46.042;14.472;2022-12-18T12:02:09;99738.38;;;3.01;65.05
9822;BME280;4950;46.042;14.472;2022-12-18T12:04:48;99743.09;;;3.08;66.25
9822;BME280;4950;46.042;14.472;2022-12-18T12:07:35;99744.03;;;3.07;66.58
9822;BME280;4950;46.042;14.472;2022-12-18T12:10:13;99747.34;;;3.09;65.83
9822;BME280;4950;46.042;14.472;2022-12-18T12:12:55;99749.16;;;3.07;66.69
9822;BME280;4950;46.042;14.472;2022-12-18T12:15:34;99747.13;;;2.96;65.60
9822;BME280;4950;46.042;14.472;2022-12-18T12:18:09;99742.31;;;2.90;66.58
9822;BME280;4950;46.042;14.472;2022-12-18T12:20:49;99741.97;;;2.81;67.64
9822;BME280;4950;46.042;14.472;2022-12-18T12:23:26;99735.19;;;2.80;67.97
9822;BME280;4950;46.042;14.472;2022-12-18T12:26:01;99739.72;;;2.74;67.90
9822;BME280;4950;46.042;14.472;2022-12-18T12:28:48;99742.28;;;2.74;68.43
9822;BME280;4950;46.042;14.472;2022-12-18T12:31:25;99734.53;;;2.76;68.64
9822;BME280;4950;46.042;14.472;2022-12-18T12:34:01;99737.00;;;2.78;68.83
9822;BME280;4950;46.042;14.472;2022-12-18T12:36:34;99735.41;;;2.75;67.42
9822;BME280;4950;46.042;14.472;2022-12-18T12:39:06;99730.53;;;2.70;67.48
9822;BME280;4950;46.042;14.472;2022-12-18T12:41:35;99735.72;;;2.69;67.24
9822;BME280;4950;46.042;14.472;2022-12-18T12:44:24;99747.03;;;2.65;67.61
9822;BME280;4950;46.042;14.472;2022-12-18T12:46:56;99743.66;;;2.64;66.34
9822;BME280;4950;46.042;14.472;2022-12-18T12:49:27;99742.47;;;2.54;66.99
9822;BME280;4950;46.042;14.472;2022-12-18T12:51:58;99747.13;;;2.46;67.19
9822;BME280;4950;46.042;14.472;2022-12-18T12:54:27;99749.56;;;2.49;68.66
9822;BME280;4950;46.042;14.472;2022-12-18T12:56:58;99737.94;;;2.42;66.48
9822;BME280;4950;46.042;14.472;2022-12-18T12:59:32;99736.19;;;2.42;67.36
9822;BME280;4950;46.042;14.472;2022-12-18T13:02:16;99739.91;;;2.36;67.79
9822;BME280;4950;46.042;14.472;2022-12-18T13:04:49;99735.00;;;2.32;68.30
9822;BME280;4950;46.042;14.472;2022-12-18T13:07:24;99745.50;;;2.27;69.28
9822;BME280;4950;46.042;14.472;2022-12-18T13:10:14;99740.19;;;2.30;69.52
9822;BME280;4950;46.042;14.472;2022-12-18T13:12:55;99742.84;;;2.29;69.24
9822;BME280;4950;46.042;14.472;2022-12-18T13:15:23;99743.44;;;2.34;69.45
9822;BME280;4950;46.042;14.472;2022-12-18T13:18:05;99757.38;;;2.28;68.30
9822;BME280;4950;46.042;14.472;2022-12-18T13:20:33;99752.47;;;2.24;68.80
9822;BME280;4950;46.042;14.472;2022-12-18T13:23:19;99761.97;;;2.22;69.31
9822;BME280;4950;46.042;14.472;2022-12-18T13:25:51;99763.56;;;2.24;69.51
9822;BME280;4950;46.042;14.472;2022-12-18T13:28:20;99768.53;;;2.27;70.02
9822;BME280;4950;46.042;14.472;2022-12-18T13:30:55;99773.44;;;2.32;69.22
9822;BME280;4950;46.042;14.472;2022-12-18T13:33:47;99765.00;;;2.30;69.94
9822;BME280;4950;46.042;14.472;2022-12-18T13:36:25;99768.53;;;2.27;68.82
9822;BME280;4950;46.042;14.472;2022-12-18T13:45:41;99770.66;;;2.36;68.37